sensor_id;sensor_type;location;lat;lon;timestamp;temperature;humidity
68924;DHT22;55961;52.156;20.942;2022-10-16T00:01:12;14.10;71.80
68924;DHT22;55961;52.156;20.942;2022-10-16T00:03:39;14.10;71.90
68924;DHT22;55961;52.156;20.942;2022-10-16T00:06:06;14.00;71.90
68924;DHT22;55961;52.156;20.942;2022-10-16T00:08:33;14.00;71.90
68924;DHT22;55961;52.156;20.942;2022-10-16T00:13:39;14.00;71.40
68924;DHT22;55961;52.156;20.942;2022-10-16T00:16:06;14.00;71.20
68924;DHT22;55961;52.156;20.942;2022-10-16T00:18:32;14.00;71.00
68924;DHT22;55961;52.156;20.942;2022-10-16T00:21:05;14.00;70.90
68924;DHT22;55961;52.156;20.942;2022-10-16T00:23:31;14.00;70.90
68924;DHT22;55961;52.156;20.942;2022-10-16T00:26:00;14.00;70.90
68924;DHT22;55961;52.156;20.942;2022-10-16T00:28:26;14.00;71.00
68924;DHT22;55961;52.156;20.942;2022-10-16T00:30:53;13.90;71.20
68924;DHT22;55961;52.156;20.942;2022-10-16T00:33:19;13.90;71.00
68924;DHT22;55961;52.156;20.942;2022-10-16T00:35:45;13.90;71.00
68924;DHT22;55961;52.156;20.942;2022-10-16T00:38:11;13.90;71.00
68924;DHT22;55961;52.156;20.942;2022-10-16T00:40:37;13.90;71.10
68924;DHT22;55961;52.156;20.942;2022-10-16T00:43:12;13.90;71.20
68924;DHT22;55961;52.156;20.942;2022-10-16T00:45:38;13.90;71.20
68924;DHT22;55961;52.156;20.942;2022-10-16T00:48:04;13.90;71.00
68924;DHT22;55961;52.156;20.942;2022-10-16T00:50:32;13.90;71.10
68924;DHT22;55961;52.156;20.942;2022-10-16T00:53:00;13.90;70.90
68924;DHT22;55961;52.156;20.942;2022-10-16T00:55:26;13.90;70.80
68924;DHT22;55961;52.156;20.942;2022-10-16T00:57:54;13.90;70.80
68924;DHT22;55961;52.156;20.942;2022-10-16T01:00:23;13.90;70.90
68924;DHT22;55961;52.156;20.942;2022-10-16T01:02:59;13.90;71.00
68924;DHT22;55961;52.156;20.942;2022-10-16T01:05:33;13.90;71.00
68924;DHT22;55961;52.156;20.942;2022-10-16T01:08:08;13.90;70.90
68924;DHT22;55961;52.156;20.942;2022-10-16T01:10:38;13.90;70.90
68924;DHT22;55961;52.156;20.942;2022-10-16T01:13:06;13.90;70.90
68924;DHT22;55961;52.156;20.942;2022-10-16T01:15:55;13.90;70.90
68924;DHT22;55961;52.156;20.942;2022-10-16T01:18:44;13.90;70.80
68924;DHT22;55961;52.156;20.942;2022-10-16T01:21:20;13.90;70.80
68924;DHT22;55961;52.156;20.942;2022-10-16T01:24:14;13.90;70.80
68924;DHT22;55961;52.156;20.942;2022-10-16T01:30:04;13.90;70.90
68924;DHT22;55961;52.156;20.942;2022-10-16T01:40:13;13.90;70.90
68924;DHT22;55961;52.156;20.942;2022-10-16T01:42:45;13.90;71.10
68924;DHT22;55961;52.156;20.942;2022-10-16T01:45:14;13.90;71.40
68924;DHT22;55961;52.156;20.942;2022-10-16T01:47:44;13.90;71.70
68924;DHT22;55961;52.156;20.942;2022-10-16T01:50:12;13.90;72.10
68924;DHT22;55961;52.156;20.942;2022-10-16T01:52:43;13.90;72.50
68924;DHT22;55961;52.156;20.942;2022-10-16T01:55:13;13.80;72.70
68924;DHT22;55961;52.156;20.942;2022-10-16T01:57:43;13.80;72.80
68924;DHT22;55961;52.156;20.942;2022-10-16T02:00:12;13.80;73.10
68924;DHT22;55961;52.156;20.942;2022-10-16T02:02:41;13.80;73.10
68924;DHT22;55961;52.156;20.942;2022-10-16T02:05:32;13.80;73.10
68924;DHT22;55961;52.156;20.942;2022-10-16T02:07:59;13.80;73.30
68924;DHT22;55961;52.156;20.942;2022-10-16T02:10:25;13.80;73.10
68924;DHT22;55961;52.156;20.942;2022-10-16T02:13:22;13.80;73.10
68924;DHT22;55961;52.156;20.942;2022-10-16T02:15:49;13.80;73.10
68924;DHT22;55961;52.156;20.942;2022-10-16T02:18:15;13.80;73.10
68924;DHT22;55961;52.156;20.942;2022-10-16T02:21:11;13.70;73.30
68924;DHT22;55961;52.156;20.942;2022-10-16T02:23:51;13.70;73.50
68924;DHT22;55961;52.156;20.942;2022-10-16T02:26:57;13.70;73.40
68924;DHT22;55961;52.156;20.942;2022-10-16T02:29:26;13.70;73.50
68924;DHT22;55961;52.156;20.942;2022-10-16T02:31:57;13.70;73.50
68924;DHT22;55961;52.156;20.942;2022-10-16T02:34:25;13.70;73.60
68924;DHT22;55961;52.156;20.942;2022-10-16T02:36:53;13.70;73.50
68924;DHT22;55961;52.156;20.942;2022-10-16T02:39:20;13.60;73.50
68924;DHT22;55961;52.156;20.942;2022-10-16T02:41:47;13.60;73.50
68924;DHT22;55961;52.156;20.942;2022-10-16T02:44:13;13.60;73.50
68924;DHT22;55961;52.156;20.942;2022-10-16T02:46:39;13.60;73.60
68924;DHT22;55961;52.156;20.942;2022-10-16T02:49:05;13.60;73.60
68924;DHT22;55961;52.156;20.942;2022-10-16T02:51:32;13.60;73.50
68924;DHT22;55961;52.156;20.942;2022-10-16T02:53:57;13.60;73.50
68924;DHT22;55961;52.156;20.942;2022-10-16T02:56:23;13.60;73.50
68924;DHT22;55961;52.156;20.942;2022-10-16T02:58:49;13.60;73.50
68924;DHT22;55961;52.156;20.942;2022-10-16T03:01:15;13.60;73.60
68924;DHT22;55961;52.156;20.942;2022-10-16T03:03:42;13.60;73.60
68924;DHT22;55961;52.156;20.942;2022-10-16T03:06:08;13.60;73.70
68924;DHT22;55961;52.156;20.942;2022-10-16T03:08:34;13.60;73.70
68924;DHT22;55961;52.156;20.942;2022-10-16T03:11:00;13.60;73.70
68924;DHT22;55961;52.156;20.942;2022-10-16T03:13:26;13.60;73.80
68924;DHT22;55961;52.156;20.942;2022-10-16T03:15:51;13.60;73.70
68924;DHT22;55961;52.156;20.942;2022-10-16T03:18:17;13.60;73.60
68924;DHT22;55961;52.156;20.942;2022-10-16T03:20:43;13.60;73.50
68924;DHT22;55961;52.156;20.942;2022-10-16T03:23:09;13.60;73.50
68924;DHT22;55961;52.156;20.942;2022-10-16T03:25:35;13.60;73.60
68924;DHT22;55961;52.156;20.942;2022-10-16T03:28:01;13.60;73.60
68924;DHT22;55961;52.156;20.942;2022-10-16T03:30:27;13.60;73.60
68924;DHT22;55961;52.156;20.942;2022-10-16T03:32:53;13.60;73.60
68924;DHT22;55961;52.156;20.942;2022-10-16T03:35:21;13.60;73.40
68924;DHT22;55961;52.156;20.942;2022-10-16T03:37:46;13.50;73.40
68924;DHT22;55961;52.156;20.942;2022-10-16T03:40:12;13.60;73.40
68924;DHT22;55961;52.156;20.942;2022-10-16T03:42:38;13.60;73.40
68924;DHT22;55961;52.156;20.942;2022-10-16T03:45:05;13.50;73.50
68924;DHT22;55961;52.156;20.942;2022-10-16T03:47:31;13.50;73.30
68924;DHT22;55961;52.156;20.942;2022-10-16T03:49:59;13.50;73.40
68924;DHT22;55961;52.156;20.942;2022-10-16T03:52:25;13.50;73.30
68924;DHT22;55961;52.156;20.942;2022-10-16T03:54:51;13.60;73.30
68924;DHT22;55961;52.156;20.942;2022-10-16T03:57:17;13.50;73.30
68924;DHT22;55961;52.156;20.942;2022-10-16T03:59:43;13.50;73.40
68924;DHT22;55961;52.156;20.942;2022-10-16T04:02:09;13.50;73.40
68924;DHT22;55961;52.156;20.942;2022-10-16T04:04:35;13.50;73.40
68924;DHT22;55961;52.156;20.942;2022-10-16T04:07:01;13.50;73.40
68924;DHT22;55961;52.156;20.942;2022-10-16T04:09:27;13.40;73.50
68924;DHT22;55961;52.156;20.942;2022-10-16T04:11:53;13.40;73.60
68924;DHT22;55961;52.156;20.942;2022-10-16T04:14:19;13.40;73.60
68924;DHT22;55961;52.156;20.942;2022-10-16T04:16:44;13.40;73.70
68924;DHT22;55961;52.156;20.942;2022-10-16T04:19:11;13.40;73.70
68924;DHT22;55961;52.156;20.942;2022-10-16T04:21:37;13.30;73.80
68924;DHT22;55961;52.156;20.942;2022-10-16T04:24:03;13.30;73.90
68924;DHT22;55961;52.156;20.942;2022-10-16T04:26:28;13.30;73.90
68924;DHT22;55961;52.156;20.942;2022-10-16T04:28:54;13.30;74.00
68924;DHT22;55961;52.156;20.942;2022-10-16T04:31:21;13.30;74.00
68924;DHT22;55961;52.156;20.942;2022-10-16T04:33:47;13.30;74.00
68924;DHT22;55961;52.156;20.942;2022-10-16T04:36:13;13.30;74.00
68924;DHT22;55961;52.156;20.942;2022-10-16T04:38:39;13.30;74.00
68924;DHT22;55961;52.156;20.942;2022-10-16T04:41:06;13.30;74.00
68924;DHT22;55961;52.156;20.942;2022-10-16T04:43:33;13.30;73.90
68924;DHT22;55961;52.156;20.942;2022-10-16T04:45:59;13.20;73.80
68924;DHT22;55961;52.156;20.942;2022-10-16T04:48:25;13.20;73.90
68924;DHT22;55961;52.156;20.942;2022-10-16T04:50:51;13.20;73.90
68924;DHT22;55961;52.156;20.942;2022-10-16T04:53:17;13.20;73.90
68924;DHT22;55961;52.156;20.942;2022-10-16T04:55:43;13.10;73.90
68924;DHT22;55961;52.156;20.942;2022-10-16T04:58:09;13.10;73.90
68924;DHT22;55961;52.156;20.942;2022-10-16T05:00:35;13.10;73.90
68924;DHT22;55961;52.156;20.942;2022-10-16T05:03:01;13.10;73.90
68924;DHT22;55961;52.156;20.942;2022-10-16T05:05:31;13.00;73.90
68924;DHT22;55961;52.156;20.942;2022-10-16T05:07:57;13.00;73.90
68924;DHT22;55961;52.156;20.942;2022-10-16T05:10:23;13.00;74.10
68924;DHT22;55961;52.156;20.942;2022-10-16T05:12:49;12.90;74.00
68924;DHT22;55961;52.156;20.942;2022-10-16T05:15:15;12.90;74.10
68924;DHT22;55961;52.156;20.942;2022-10-16T05:17:41;12.90;74.30
68924;DHT22;55961;52.156;20.942;2022-10-16T05:20:07;12.80;74.30
68924;DHT22;55961;52.156;20.942;2022-10-16T05:22:33;12.80;74.40
68924;DHT22;55961;52.156;20.942;2022-10-16T05:24:59;12.70;74.50
68924;DHT22;55961;52.156;20.942;2022-10-16T05:27:25;12.70;74.60
68924;DHT22;55961;52.156;20.942;2022-10-16T05:29:50;12.70;74.70
68924;DHT22;55961;52.156;20.942;2022-10-16T05:32:17;12.60;74.80
68924;DHT22;55961;52.156;20.942;2022-10-16T05:34:44;12.60;75.00
68924;DHT22;55961;52.156;20.942;2022-10-16T05:37:11;12.50;75.20
68924;DHT22;55961;52.156;20.942;2022-10-16T05:39:40;12.50;75.30
68924;DHT22;55961;52.156;20.942;2022-10-16T05:42:06;12.50;75.30
68924;DHT22;55961;52.156;20.942;2022-10-16T05:44:32;12.50;75.50
68924;DHT22;55961;52.156;20.942;2022-10-16T05:46:58;12.40;75.70
68924;DHT22;55961;52.156;20.942;2022-10-16T05:49:24;12.40;75.90
68924;DHT22;55961;52.156;20.942;2022-10-16T05:51:50;12.40;76.00
68924;DHT22;55961;52.156;20.942;2022-10-16T05:54:16;12.40;76.10
68924;DHT22;55961;52.156;20.942;2022-10-16T05:56:42;12.40;76.20
68924;DHT22;55961;52.156;20.942;2022-10-16T05:59:08;12.40;76.20
68924;DHT22;55961;52.156;20.942;2022-10-16T06:01:34;12.40;76.10
68924;DHT22;55961;52.156;20.942;2022-10-16T06:04:01;12.40;76.10
68924;DHT22;55961;52.156;20.942;2022-10-16T06:06:27;12.40;76.20
68924;DHT22;55961;52.156;20.942;2022-10-16T06:08:55;12.50;76.20
68924;DHT22;55961;52.156;20.942;2022-10-16T06:11:27;12.50;76.20
68924;DHT22;55961;52.156;20.942;2022-10-16T06:13:55;12.50;76.10
68924;DHT22;55961;52.156;20.942;2022-10-16T06:16:23;12.60;76.30
68924;DHT22;55961;52.156;20.942;2022-10-16T06:18:51;12.60;76.10
68924;DHT22;55961;52.156;20.942;2022-10-16T06:21:19;12.70;76.00
68924;DHT22;55961;52.156;20.942;2022-10-16T06:23:46;12.70;75.90
68924;DHT22;55961;52.156;20.942;2022-10-16T06:26:16;12.80;75.70
68924;DHT22;55961;52.156;20.942;2022-10-16T06:28:42;12.80;75.40
68924;DHT22;55961;52.156;20.942;2022-10-16T06:31:09;12.90;75.40
68924;DHT22;55961;52.156;20.942;2022-10-16T06:33:36;13.00;75.10
68924;DHT22;55961;52.156;20.942;2022-10-16T06:36:05;13.00;74.90
68924;DHT22;55961;52.156;20.942;2022-10-16T06:38:31;13.10;74.90
68924;DHT22;55961;52.156;20.942;2022-10-16T06:40:58;13.10;74.80
68924;DHT22;55961;52.156;20.942;2022-10-16T06:43:24;13.20;74.60
68924;DHT22;55961;52.156;20.942;2022-10-16T06:45:54;13.20;74.40
68924;DHT22;55961;52.156;20.942;2022-10-16T06:48:21;13.30;74.20
68924;DHT22;55961;52.156;20.942;2022-10-16T06:51:05;13.30;74.30
68924;DHT22;55961;52.156;20.942;2022-10-16T06:53:33;13.40;73.90
68924;DHT22;55961;52.156;20.942;2022-10-16T06:56:27;13.40;74.10
68924;DHT22;55961;52.156;20.942;2022-10-16T06:58:53;13.50;74.10
68924;DHT22;55961;52.156;20.942;2022-10-16T07:01:21;13.50;73.80
68924;DHT22;55961;52.156;20.942;2022-10-16T07:03:47;13.60;73.70
68924;DHT22;55961;52.156;20.942;2022-10-16T07:06:17;13.60;73.80
68924;DHT22;55961;52.156;20.942;2022-10-16T07:08:46;13.70;73.80
68924;DHT22;55961;52.156;20.942;2022-10-16T07:11:18;13.70;73.70
68924;DHT22;55961;52.156;20.942;2022-10-16T07:13:45;13.80;73.60
68924;DHT22;55961;52.156;20.942;2022-10-16T07:16:20;13.80;73.60
68924;DHT22;55961;52.156;20.942;2022-10-16T07:18:47;13.90;73.70
68924;DHT22;55961;52.156;20.942;2022-10-16T07:21:16;13.90;73.60
68924;DHT22;55961;52.156;20.942;2022-10-16T07:23:45;14.00;73.70
68924;DHT22;55961;52.156;20.942;2022-10-16T07:26:11;14.00;73.80
68924;DHT22;55961;52.156;20.942;2022-10-16T07:28:37;14.00;73.60
68924;DHT22;55961;52.156;20.942;2022-10-16T07:31:07;14.10;73.70
68924;DHT22;55961;52.156;20.942;2022-10-16T07:33:34;14.10;73.80
68924;DHT22;55961;52.156;20.942;2022-10-16T07:36:00;14.20;73.60
68924;DHT22;55961;52.156;20.942;2022-10-16T07:38:29;14.20;73.40
68924;DHT22;55961;52.156;20.942;2022-10-16T07:40:59;14.30;73.60
68924;DHT22;55961;52.156;20.942;2022-10-16T07:43:26;14.40;73.30
68924;DHT22;55961;52.156;20.942;2022-10-16T07:45:53;14.50;73.40
68924;DHT22;55961;52.156;20.942;2022-10-16T07:48:19;14.60;73.30
68924;DHT22;55961;52.156;20.942;2022-10-16T07:50:48;14.70;72.90
68924;DHT22;55961;52.156;20.942;2022-10-16T07:53:14;14.80;72.30
68924;DHT22;55961;52.156;20.942;2022-10-16T07:55:40;14.90;72.70
68924;DHT22;55961;52.156;20.942;2022-10-16T07:58:06;15.10;72.90
68924;DHT22;55961;52.156;20.942;2022-10-16T08:00:35;15.20;71.70
68924;DHT22;55961;52.156;20.942;2022-10-16T08:03:04;15.40;71.20
68924;DHT22;55961;52.156;20.942;2022-10-16T08:05:31;15.60;70.40
68924;DHT22;55961;52.156;20.942;2022-10-16T08:07:57;15.70;69.40
68924;DHT22;55961;52.156;20.942;2022-10-16T08:10:25;15.90;69.10
68924;DHT22;55961;52.156;20.942;2022-10-16T08:12:52;16.00;69.20
68924;DHT22;55961;52.156;20.942;2022-10-16T08:15:19;16.10;68.30
68924;DHT22;55961;52.156;20.942;2022-10-16T08:17:59;16.20;68.60
68924;DHT22;55961;52.156;20.942;2022-10-16T08:20:27;16.30;68.10
68924;DHT22;55961;52.156;20.942;2022-10-16T08:22:53;16.40;67.50
68924;DHT22;55961;52.156;20.942;2022-10-16T08:25:21;16.50;67.30
68924;DHT22;55961;52.156;20.942;2022-10-16T08:27:48;16.60;67.10
68924;DHT22;55961;52.156;20.942;2022-10-16T08:30:14;16.70;66.80
68924;DHT22;55961;52.156;20.942;2022-10-16T08:32:40;16.80;66.60
68924;DHT22;55961;52.156;20.942;2022-10-16T08:35:10;16.90;66.70
68924;DHT22;55961;52.156;20.942;2022-10-16T08:37:39;17.00;66.40
68924;DHT22;55961;52.156;20.942;2022-10-16T08:40:18;17.10;65.90
68924;DHT22;55961;52.156;20.942;2022-10-16T08:51:35;17.20;65.50
68924;DHT22;55961;52.156;20.942;2022-10-16T08:56:36;17.30;64.90
68924;DHT22;55961;52.156;20.942;2022-10-16T08:59:04;17.30;65.20
68924;DHT22;55961;52.156;20.942;2022-10-16T09:01:45;17.40;65.30
68924;DHT22;55961;52.156;20.942;2022-10-16T09:10:17;17.50;64.80
68924;DHT22;55961;52.156;20.942;2022-10-16T09:13:20;17.50;65.10
68924;DHT22;55961;52.156;20.942;2022-10-16T09:18:54;17.60;64.90
68924;DHT22;55961;52.156;20.942;2022-10-16T09:21:29;17.70;64.50
68924;DHT22;55961;52.156;20.942;2022-10-16T09:23:59;17.80;64.00
68924;DHT22;55961;52.156;20.942;2022-10-16T09:26:30;17.80;64.30
68924;DHT22;55961;52.156;20.942;2022-10-16T09:28:57;17.90;64.50
68924;DHT22;55961;52.156;20.942;2022-10-16T09:31:23;18.00;64.20
68924;DHT22;55961;52.156;20.942;2022-10-16T09:33:58;18.10;64.30
68924;DHT22;55961;52.156;20.942;2022-10-16T09:36:27;18.20;64.30
68924;DHT22;55961;52.156;20.942;2022-10-16T09:39:04;18.30;63.60
68924;DHT22;55961;52.156;20.942;2022-10-16T09:41:33;18.50;63.00
68924;DHT22;55961;52.156;20.942;2022-10-16T09:44:01;18.60;62.30
68924;DHT22;55961;52.156;20.942;2022-10-16T09:48:57;18.60;62.10
68924;DHT22;55961;52.156;20.942;2022-10-16T09:51:27;18.60;62.30
68924;DHT22;55961;52.156;20.942;2022-10-16T09:54:01;18.60;62.20
68924;DHT22;55961;52.156;20.942;2022-10-16T09:56:32;18.60;62.70
68924;DHT22;55961;52.156;20.942;2022-10-16T09:59:01;18.70;62.30
68924;DHT22;55961;52.156;20.942;2022-10-16T10:04:08;18.80;61.80
68924;DHT22;55961;52.156;20.942;2022-10-16T10:06:34;18.90;62.40
68924;DHT22;55961;52.156;20.942;2022-10-16T10:09:27;18.90;61.80
68924;DHT22;55961;52.156;20.942;2022-10-16T10:11:59;19.00;62.20
68924;DHT22;55961;52.156;20.942;2022-10-16T10:17:15;19.30;61.40
68924;DHT22;55961;52.156;20.942;2022-10-16T10:19:50;19.50;60.70
68924;DHT22;55961;52.156;20.942;2022-10-16T10:22:30;19.60;59.90
68924;DHT22;55961;52.156;20.942;2022-10-16T10:25:00;19.70;59.20
68924;DHT22;55961;52.156;20.942;2022-10-16T10:37:00;20.10;58.70
68924;DHT22;55961;52.156;20.942;2022-10-16T10:42:52;20.20;58.60
68924;DHT22;55961;52.156;20.942;2022-10-16T10:45:28;20.10;58.30
68924;DHT22;55961;52.156;20.942;2022-10-16T10:51:01;20.10;58.10
68924;DHT22;55961;52.156;20.942;2022-10-16T11:02:02;20.00;59.10
68924;DHT22;55961;52.156;20.942;2022-10-16T11:07:28;20.00;59.30
68924;DHT22;55961;52.156;20.942;2022-10-16T11:10:12;20.00;58.60
68924;DHT22;55961;52.156;20.942;2022-10-16T11:12:44;20.10;58.90
68924;DHT22;55961;52.156;20.942;2022-10-16T11:15:27;20.00;58.80
68924;DHT22;55961;52.156;20.942;2022-10-16T11:17:59;20.00;59.10
68924;DHT22;55961;52.156;20.942;2022-10-16T11:20:34;20.10;59.20
68924;DHT22;55961;52.156;20.942;2022-10-16T11:23:35;20.10;59.60
68924;DHT22;55961;52.156;20.942;2022-10-16T11:26:09;20.10;59.10
68924;DHT22;55961;52.156;20.942;2022-10-16T11:29:04;20.10;59.30
68924;DHT22;55961;52.156;20.942;2022-10-16T11:31:49;20.20;59.10
68924;DHT22;55961;52.156;20.942;2022-10-16T11:37:10;20.20;58.60
68924;DHT22;55961;52.156;20.942;2022-10-16T11:39:38;20.20;59.10
68924;DHT22;55961;52.156;20.942;2022-10-16T11:42:40;20.20;59.10
68924;DHT22;55961;52.156;20.942;2022-10-16T11:45:27;20.20;59.20
68924;DHT22;55961;52.156;20.942;2022-10-16T11:48:02;20.30;58.80
68924;DHT22;55961;52.156;20.942;2022-10-16T11:50:56;20.30;58.50
68924;DHT22;55961;52.156;20.942;2022-10-16T11:53:45;20.30;58.50
68924;DHT22;55961;52.156;20.942;2022-10-16T11:56:16;20.40;58.80
68924;DHT22;55961;52.156;20.942;2022-10-16T11:59:02;20.40;58.10
68924;DHT22;55961;52.156;20.942;2022-10-16T12:01:52;20.40;58.20
68924;DHT22;55961;52.156;20.942;2022-10-16T12:09:31;20.70;58.00
68924;DHT22;55961;52.156;20.942;2022-10-16T12:12:00;20.70;57.80
68924;DHT22;55961;52.156;20.942;2022-10-16T12:14:34;20.70;57.80
68924;DHT22;55961;52.156;20.942;2022-10-16T12:20:01;20.70;57.70
68924;DHT22;55961;52.156;20.942;2022-10-16T12:22:52;20.70;57.90
68924;DHT22;55961;52.156;20.942;2022-10-16T12:25:27;20.70;57.80
68924;DHT22;55961;52.156;20.942;2022-10-16T12:28:05;20.70;57.80
68924;DHT22;55961;52.156;20.942;2022-10-16T12:30:35;20.70;57.70
68924;DHT22;55961;52.156;20.942;2022-10-16T12:33:04;20.70;57.60
68924;DHT22;55961;52.156;20.942;2022-10-16T12:35:33;20.70;58.10
68924;DHT22;55961;52.156;20.942;2022-10-16T12:38:19;20.70;58.20
68924;DHT22;55961;52.156;20.942;2022-10-16T12:40:55;20.70;58.10
68924;DHT22;55961;52.156;20.942;2022-10-16T12:43:28;20.70;58.00
68924;DHT22;55961;52.156;20.942;2022-10-16T12:46:43;20.70;57.90
68924;DHT22;55961;52.156;20.942;2022-10-16T12:48:50;20.60;58.10
68924;DHT22;55961;52.156;20.942;2022-10-16T12:51:45;20.60;58.40
68924;DHT22;55961;52.156;20.942;2022-10-16T12:54:12;20.60;58.20
68924;DHT22;55961;52.156;20.942;2022-10-16T12:59:48;20.70;58.30
68924;DHT22;55961;52.156;20.942;2022-10-16T13:11:08;20.60;59.10
68924;DHT22;55961;52.156;20.942;2022-10-16T13:29:16;20.40;59.80
68924;DHT22;55961;52.156;20.942;2022-10-16T13:31:49;20.40;59.60
68924;DHT22;55961;52.156;20.942;2022-10-16T13:34:19;20.40;59.70
68924;DHT22;55961;52.156;20.942;2022-10-16T13:36:51;20.40;59.60
68924;DHT22;55961;52.156;20.942;2022-10-16T13:39:29;20.40;59.70
68924;DHT22;55961;52.156;20.942;2022-10-16T13:44:51;20.30;60.30
68924;DHT22;55961;52.156;20.942;2022-10-16T13:47:23;20.30;60.50
68924;DHT22;55961;52.156;20.942;2022-10-16T13:50:16;20.30;60.50
68924;DHT22;55961;52.156;20.942;2022-10-16T13:52:44;20.30;60.60
68924;DHT22;55961;52.156;20.942;2022-10-16T13:55:14;20.30;60.60
68924;DHT22;55961;52.156;20.942;2022-10-16T13:57:41;20.20;60.50
68924;DHT22;55961;52.156;20.942;2022-10-16T14:00:22;20.20;60.70
68924;DHT22;55961;52.156;20.942;2022-10-16T14:02:57;20.20;60.90
68924;DHT22;55961;52.156;20.942;2022-10-16T14:05:24;20.20;60.80
68924;DHT22;55961;52.156;20.942;2022-10-16T14:07:51;20.20;61.00
68924;DHT22;55961;52.156;20.942;2022-10-16T14:10:32;20.20;61.00
68924;DHT22;55961;52.156;20.942;2022-10-16T14:13:04;20.20;61.10
68924;DHT22;55961;52.156;20.942;2022-10-16T14:15:32;20.10;61.20
68924;DHT22;55961;52.156;20.942;2022-10-16T14:18:00;20.20;61.30
68924;DHT22;55961;52.156;20.942;2022-10-16T14:20:28;20.20;61.40
68924;DHT22;55961;52.156;20.942;2022-10-16T14:23:00;20.10;61.40
68924;DHT22;55961;52.156;20.942;2022-10-16T14:25:29;20.10;61.50
68924;DHT22;55961;52.156;20.942;2022-10-16T14:28:16;20.10;61.60
68924;DHT22;55961;52.156;20.942;2022-10-16T14:30:57;20.10;61.70
68924;DHT22;55961;52.156;20.942;2022-10-16T14:38:39;20.10;62.10
68924;DHT22;55961;52.156;20.942;2022-10-16T14:41:06;20.00;62.40
68924;DHT22;55961;52.156;20.942;2022-10-16T14:43:41;20.00;62.60
68924;DHT22;55961;52.156;20.942;2022-10-16T14:46:16;20.00;62.70
68924;DHT22;55961;52.156;20.942;2022-10-16T14:49:15;20.00;62.70
68924;DHT22;55961;52.156;20.942;2022-10-16T14:51:51;20.00;62.70
68924;DHT22;55961;52.156;20.942;2022-10-16T14:54:19;20.00;62.70
68924;DHT22;55961;52.156;20.942;2022-10-16T14:56:53;20.00;62.60
68924;DHT22;55961;52.156;20.942;2022-10-16T14:59:44;19.90;62.70
68924;DHT22;55961;52.156;20.942;2022-10-16T15:02:34;19.90;62.80
68924;DHT22;55961;52.156;20.942;2022-10-16T15:05:15;19.90;62.80
68924;DHT22;55961;52.156;20.942;2022-10-16T15:07:41;19.90;62.70
68924;DHT22;55961;52.156;20.942;2022-10-16T15:10:07;19.90;62.80
68924;DHT22;55961;52.156;20.942;2022-10-16T15:12:33;19.80;62.90
68924;DHT22;55961;52.156;20.942;2022-10-16T15:14:59;19.80;62.90
68924;DHT22;55961;52.156;20.942;2022-10-16T15:17:25;19.70;63.10
68924;DHT22;55961;52.156;20.942;2022-10-16T15:19:51;19.70;63.20
68924;DHT22;55961;52.156;20.942;2022-10-16T15:22:17;19.70;63.30
68924;DHT22;55961;52.156;20.942;2022-10-16T15:24:43;19.70;63.40
68924;DHT22;55961;52.156;20.942;2022-10-16T15:27:11;19.60;63.50
68924;DHT22;55961;52.156;20.942;2022-10-16T15:29:37;19.60;63.70
68924;DHT22;55961;52.156;20.942;2022-10-16T15:32:03;19.50;63.90
68924;DHT22;55961;52.156;20.942;2022-10-16T15:34:29;19.50;64.00
68924;DHT22;55961;52.156;20.942;2022-10-16T15:36:55;19.50;64.10
68924;DHT22;55961;52.156;20.942;2022-10-16T15:39:23;19.40;64.30
68924;DHT22;55961;52.156;20.942;2022-10-16T15:41:49;19.40;64.40
68924;DHT22;55961;52.156;20.942;2022-10-16T15:44:20;19.40;64.50
68924;DHT22;55961;52.156;20.942;2022-10-16T15:46:47;19.40;64.60
68924;DHT22;55961;52.156;20.942;2022-10-16T15:49:13;19.30;64.70
68924;DHT22;55961;52.156;20.942;2022-10-16T15:51:40;19.30;64.90
68924;DHT22;55961;52.156;20.942;2022-10-16T15:54:07;19.30;65.00
68924;DHT22;55961;52.156;20.942;2022-10-16T15:56:33;19.20;65.10
68924;DHT22;55961;52.156;20.942;2022-10-16T15:58:59;19.20;65.10
68924;DHT22;55961;52.156;20.942;2022-10-16T16:01:26;19.20;65.30
68924;DHT22;55961;52.156;20.942;2022-10-16T16:03:54;19.20;65.40
68924;DHT22;55961;52.156;20.942;2022-10-16T16:06:20;19.20;65.50
68924;DHT22;55961;52.156;20.942;2022-10-16T16:08:46;19.20;65.60
68924;DHT22;55961;52.156;20.942;2022-10-16T16:11:14;19.10;65.70
68924;DHT22;55961;52.156;20.942;2022-10-16T16:13:40;19.10;65.80
68924;DHT22;55961;52.156;20.942;2022-10-16T16:16:09;19.10;65.90
68924;DHT22;55961;52.156;20.942;2022-10-16T16:18:35;19.00;66.00
68924;DHT22;55961;52.156;20.942;2022-10-16T16:21:02;19.00;66.10
68924;DHT22;55961;52.156;20.942;2022-10-16T16:23:28;19.00;66.30
68924;DHT22;55961;52.156;20.942;2022-10-16T16:26:07;19.00;66.40
68924;DHT22;55961;52.156;20.942;2022-10-16T16:28:35;18.90;66.60
68924;DHT22;55961;52.156;20.942;2022-10-16T16:31:01;18.90;66.80
68924;DHT22;55961;52.156;20.942;2022-10-16T16:33:27;18.90;66.80
68924;DHT22;55961;52.156;20.942;2022-10-16T16:35:57;18.80;67.00
68924;DHT22;55961;52.156;20.942;2022-10-16T16:38:23;18.80;67.10
68924;DHT22;55961;52.156;20.942;2022-10-16T16:40:49;18.80;67.30
68924;DHT22;55961;52.156;20.942;2022-10-16T16:43:16;18.70;67.30
68924;DHT22;55961;52.156;20.942;2022-10-16T16:45:42;18.70;67.50
68924;DHT22;55961;52.156;20.942;2022-10-16T16:48:08;18.60;67.70
68924;DHT22;55961;52.156;20.942;2022-10-16T16:50:37;18.60;67.80
68924;DHT22;55961;52.156;20.942;2022-10-16T16:53:03;18.60;67.90
68924;DHT22;55961;52.156;20.942;2022-10-16T16:55:29;18.50;68.00
68924;DHT22;55961;52.156;20.942;2022-10-16T16:57:55;18.50;68.10
68924;DHT22;55961;52.156;20.942;2022-10-16T17:00:22;18.50;68.20
68924;DHT22;55961;52.156;20.942;2022-10-16T17:02:49;18.50;68.20
68924;DHT22;55961;52.156;20.942;2022-10-16T17:05:16;18.40;68.40
68924;DHT22;55961;52.156;20.942;2022-10-16T17:07:41;18.40;68.50
68924;DHT22;55961;52.156;20.942;2022-10-16T17:10:08;18.30;68.50
68924;DHT22;55961;52.156;20.942;2022-10-16T17:12:34;18.30;68.60
68924;DHT22;55961;52.156;20.942;2022-10-16T17:15:00;18.30;68.60
68924;DHT22;55961;52.156;20.942;2022-10-16T17:17:26;18.20;68.80
68924;DHT22;55961;52.156;20.942;2022-10-16T17:19:52;18.20;68.80
68924;DHT22;55961;52.156;20.942;2022-10-16T17:22:19;18.10;68.90
68924;DHT22;55961;52.156;20.942;2022-10-16T17:24:48;18.10;68.90
68924;DHT22;55961;52.156;20.942;2022-10-16T17:27:15;18.10;69.00
68924;DHT22;55961;52.156;20.942;2022-10-16T17:29:42;18.00;69.00